Accueil
METAR-TAF:

METAR-TAF

Aéroports :

Aéroport Albert-Picardie

Albert, France

latitude: 49-58-21N, longitude: 002-41-29E, altitude: 111 m

Observation

Le bulletin a été fait il y a 38 minutes, à 13:30 UTC
Vent 5 kt de ouest/nord-ouest, variant entre ouest/sud-ouest et nord/nord-est
Température 24°C
Humidité 44%
Pression 1026 hPa
Visibilité 10 km ou plus
pas de nuages en-dessous de 1500 mètres et pas de cumulonimbus.

METAR: LFAQ 221330Z AUTO 29005KT 240V030 CAVOK 24/11 Q1026 NOSIG

Heure: 16:08 (14:08 UTC)

Prévision

Le bulletin a été fait il y a 3 heures et 8 minutes, à 11:00 UTC
Prévision valable du 22 à 12 UTC au 22 à 21 UTC
Vent 5 kt de nord-ouest
Visibilité 10 km ou plus
pas de nuages en-dessous de 1500 mètres et pas de cumulonimbus.

TAF: LFAQ 221100Z 2212/2221 32005KT CAVOK

Observations et prévisions météorologiques de plus de 4000 aéroports (messages METAR et TAF).

Les stations disponibles sont représentées par des disques jaunes et rouges sur la carte.

Passer la souris dessus pour voir le nom de la station.

Cliquer dessus pour voir les observations et prévisions météorologiques.

Pour changer de carte: cliquez sur les boutons verts avec une croix noire pour zoomer, sur le bouton vert avec un tiret pour effectuer un zoom arrière, ou sur les flèches vertes pour les cartes adjacentes.


METAR-TAF: